Pleiades — WDG9301 — position and weather

sailwx.info

Track history (hours):
 
Tides and Currents Weather Stations Pressure Air Temp Water Temp Dewpoint Dewpoint Depression Visibility Wind Speed Wind Dir Waves Ship Positions

Pleiades

Owner: Ashmore, Michael L, Alameda, CA. More information available from US FCC via Universal Licensing System and Coast Guard Vessel Documentation Center.

Last reported at 2018-May-29 01:39 UTC. Time now 2018-Jun-19 22:15 UTC.
Position N 37°47' W 122°15'.
Warning: this ship's position is 21 days out of date.

Length 12 m.

Type: Sailing vessel. MMSI: 367586420.

Date/timePositionNaut miles runAvg speedWind from/ knotsBaromVisibWave heightAir tempDewpointWater temp
2018-May-29 01:39N 37°47' W 122°15'0 0.0
2018-May-29 01:27N 37°47' W 122°15'0 0.0
2018-May-29 00:51N 37°47' W 122°15'0 0.3
2018-May-29 00:26N 37°47' W 122°15'2 4.3
2018-May-29 00:00N 37°48' W 122°17'2 4.9
2018-May-28 23:30N 37°48' W 122°20'2 3.4
2018-May-28 22:56N 37°50' W 122°22'2 4.3
2018-May-28 22:30N 37°51' W 122°23'3 5.0
2018-May-28 22:00N 37°52' W 122°26'0 0.6
2018-May-28 21:29N 37°52' W 122°26'0 0.0
2018-May-27 15:22N 37°52' W 122°26'0 0.0
2018-May-27 14:58N 37°52' W 122°26'0 0.0
2018-May-27 00:02N 37°52' W 122°26'0 0.9
2018-May-26 23:59N 37°52' W 122°26'0 0.0
2018-May-26 23:25N 37°52' W 122°26'0 0.0
2018-May-26 22:58N 37°52' W 122°26'0 0.0
2018-May-26 22:30N 37°52' W 122°26'0 0.2
2018-May-26 22:00N 37°52' W 122°26'2 3.0
2018-May-26 21:29N 37°54' W 122°26'0 0.6
2018-May-26 20:59N 37°53' W 122°26'2 3.4
2018-May-26 20:30N 37°52' W 122°25'3 6.6
2018-May-26 19:58N 37°50' W 122°22'3 6.2
2018-May-26 19:30N 37°48' W 122°19'3 5.9
2018-May-26 18:59N 37°47' W 122°15'0 0.4
2018-May-26 18:16N 37°47' W 122°15'  
Track history (hours):
 
Tides and Currents Weather Stations Pressure Air Temp Water Temp Dewpoint Dewpoint Depression Visibility Wind Speed Wind Dir Waves Ship Positions

Pleiades

Owner: Ashmore, Michael L, Alameda, CA. More information available from US FCC via Universal Licensing System and Coast Guard Vessel Documentation Center.

Last reported at 2018-May-29 01:39 UTC. Time now 2018-Jun-19 22:15 UTC.
Position N 37°47' W 122°15'.
Warning: this ship's position is 21 days out of date.

Length 12 m.

Type: Sailing vessel. MMSI: 367586420.

Date/timePositionNaut miles runAvg speedWind from/ knotsBaromVisibWave heightAir tempDewpointWater temp
2018-May-29 01:39N 37°47' W 122°15'0 0.0
2018-May-29 01:27N 37°47' W 122°15'0 0.0
2018-May-29 00:51N 37°47' W 122°15'0 0.3
2018-May-29 00:26N 37°47' W 122°15'2 4.3
2018-May-29 00:00N 37°48' W 122°17'2 4.9
2018-May-28 23:30N 37°48' W 122°20'2 3.4
2018-May-28 22:56N 37°50' W 122°22'2 4.3
2018-May-28 22:30N 37°51' W 122°23'3 5.0
2018-May-28 22:00N 37°52' W 122°26'0 0.6
2018-May-28 21:29N 37°52' W 122°26'0 0.0
2018-May-27 15:22N 37°52' W 122°26'0 0.0
2018-May-27 14:58N 37°52' W 122°26'0 0.0
2018-May-27 00:02N 37°52' W 122°26'0 0.9
2018-May-26 23:59N 37°52' W 122°26'0 0.0
2018-May-26 23:25N 37°52' W 122°26'0 0.0
2018-May-26 22:58N 37°52' W 122°26'0 0.0
2018-May-26 22:30N 37°52' W 122°26'0 0.2
2018-May-26 22:00N 37°52' W 122°26'2 3.0
2018-May-26 21:29N 37°54' W 122°26'0 0.6
2018-May-26 20:59N 37°53' W 122°26'2 3.4
2018-May-26 20:30N 37°52' W 122°25'3 6.6
2018-May-26 19:58N 37°50' W 122°22'3 6.2
2018-May-26 19:30N 37°48' W 122°19'3 5.9
2018-May-26 18:59N 37°47' W 122°15'0 0.4
2018-May-26 18:16N 37°47' W 122°15'  

Dump ship's entire track history